createdAt,value
2019-02-14T00:00:50.358Z,5.67
2019-02-14T00:14:13.997Z,7.45
2019-02-14T00:16:42.977Z,5.70
2019-02-14T00:19:11.931Z,5.45
2019-02-14T00:21:40.876Z,4.03
2019-02-14T00:24:09.819Z,5.00
2019-02-14T00:26:38.794Z,5.33
2019-02-14T00:29:07.783Z,4.40
2019-02-14T00:31:36.738Z,6.45
2019-02-14T00:34:05.737Z,3.98
2019-02-14T00:36:34.666Z,4.03
2019-02-14T00:39:04.816Z,5.03
2019-02-14T00:41:33.765Z,4.80
2019-02-14T00:44:02.730Z,5.72
2019-02-14T00:46:31.676Z,4.37
2019-02-14T00:49:00.542Z,4.67
2019-02-14T00:51:29.510Z,4.80
2019-02-14T00:53:58.499Z,3.67
2019-02-14T00:56:27.351Z,4.30
2019-02-14T00:58:56.237Z,5.03
2019-02-14T01:01:25.180Z,5.92
2019-02-14T01:03:54.174Z,3.40
2019-02-14T01:06:23.106Z,3.62
2019-02-14T01:08:52.075Z,4.28
2019-02-14T01:11:21.024Z,3.83
2019-02-14T01:13:49.961Z,6.83
2019-02-14T01:16:18.889Z,5.55
2019-02-14T01:18:47.849Z,4.35
2019-02-14T01:21:16.795Z,4.37
2019-02-14T01:23:45.731Z,5.85
2019-02-14T01:26:14.710Z,3.37
2019-02-14T01:28:43.675Z,4.87
2019-02-14T01:31:12.620Z,3.85
2019-02-14T01:33:41.584Z,5.67
2019-02-14T01:36:10.472Z,4.65
2019-02-14T01:38:39.422Z,5.25
2019-02-14T01:41:08.372Z,4.05
2019-02-14T01:43:37.326Z,4.12
2019-02-14T01:46:06.266Z,3.75
2019-02-14T01:48:35.191Z,3.98
2019-02-14T01:51:04.126Z,4.30
2019-02-14T01:53:33.080Z,3.95
2019-02-14T01:56:01.947Z,4.80
2019-02-14T01:58:31.011Z,4.35
2019-02-14T02:00:59.949Z,6.45
2019-02-14T02:03:28.889Z,3.37
2019-02-14T02:05:57.847Z,3.12
2019-02-14T02:08:26.819Z,3.58
2019-02-14T02:10:55.969Z,4.85
2019-02-14T02:13:24.927Z,4.53
2019-02-14T02:15:53.855Z,5.92
2019-02-14T02:18:23.053Z,3.27
2019-02-14T02:20:51.981Z,6.15
2019-02-14T02:23:20.899Z,3.83
2019-02-14T02:25:49.861Z,5.05
2019-02-14T02:28:18.780Z,3.98
2019-02-14T02:30:47.759Z,6.08
2019-02-14T02:33:16.697Z,5.17
2019-02-14T02:35:45.647Z,4.28
2019-02-14T02:38:14.567Z,4.00
2019-02-14T02:40:43.511Z,3.80
2019-02-14T02:43:12.448Z,4.20
2019-02-14T02:45:41.411Z,5.55
2019-02-14T02:48:10.348Z,3.92
2019-02-14T02:50:39.280Z,3.77
2019-02-14T02:53:08.258Z,4.55
2019-02-14T02:55:37.210Z,4.58
2019-02-14T02:58:06.147Z,4.70
2019-02-14T03:00:35.083Z,3.95
2019-02-14T03:03:04.048Z,4.42
2019-02-14T03:05:32.994Z,6.30
2019-02-14T03:08:01.948Z,3.65
2019-02-14T03:10:30.867Z,7.25
2019-02-14T03:12:59.835Z,7.58
2019-02-14T03:15:28.711Z,3.35
2019-02-14T03:17:57.641Z,3.37
2019-02-14T03:20:26.569Z,5.25
2019-02-14T03:22:55.526Z,3.77
2019-02-14T03:25:24.486Z,3.30
2019-02-14T03:27:53.447Z,4.62
2019-02-14T03:30:22.460Z,4.55
2019-02-14T03:32:51.397Z,3.50
2019-02-14T03:35:20.363Z,3.65
2019-02-14T03:37:49.317Z,3.10
2019-02-14T03:40:18.287Z,3.33
2019-02-14T03:42:47.306Z,3.02
2019-02-14T03:45:16.878Z,3.15
2019-02-14T03:47:45.828Z,2.80
2019-02-14T03:50:14.843Z,3.55
2019-02-14T03:52:43.746Z,3.45
2019-02-14T03:55:12.710Z,3.12
2019-02-14T03:57:41.640Z,3.02
2019-02-14T04:00:12.859Z,2.95
2019-02-14T04:02:41.782Z,3.33
2019-02-14T04:05:10.765Z,3.47
2019-02-14T04:07:39.784Z,4.15
2019-02-14T04:10:10.173Z,2.87
2019-02-14T04:12:39.154Z,2.95
2019-02-14T04:15:10.420Z,4.00
2019-02-14T04:17:39.494Z,3.10
2019-02-14T04:20:08.823Z,4.37
2019-02-14T04:22:37.775Z,3.70
2019-02-14T04:25:06.757Z,4.03
2019-02-14T04:27:35.731Z,2.98
2019-02-14T04:30:04.907Z,3.22
2019-02-14T04:32:33.895Z,3.12
2019-02-14T04:35:02.868Z,3.40
2019-02-14T04:37:31.847Z,3.10
2019-02-14T04:40:00.791Z,3.70
2019-02-14T04:42:29.760Z,4.25
2019-02-14T04:44:58.705Z,6.67
2019-02-14T04:47:27.652Z,5.58
2019-02-14T04:49:56.638Z,4.47
2019-02-14T04:52:25.506Z,4.97
2019-02-14T04:54:54.444Z,4.67
2019-02-14T04:57:23.333Z,4.35
2019-02-14T04:59:52.302Z,4.00
2019-02-14T05:02:21.250Z,3.62
2019-02-14T05:04:50.208Z,4.97
2019-02-14T05:07:19.152Z,4.65
2019-02-14T05:09:48.108Z,5.03
2019-02-14T05:12:17.072Z,5.28
2019-02-14T05:14:46.014Z,3.85
2019-02-14T05:17:14.982Z,4.00
2019-02-14T05:19:43.942Z,4.97
2019-02-14T05:22:12.919Z,6.40
2019-02-14T05:24:41.851Z,3.65
2019-02-14T05:27:10.844Z,4.60
2019-02-14T05:29:39.776Z,6.78
2019-02-14T05:32:08.736Z,3.35
2019-02-14T05:34:37.685Z,7.17
2019-02-14T05:37:06.649Z,4.35
2019-02-14T05:39:35.537Z,2.90
2019-02-14T05:42:04.523Z,3.00
2019-02-14T05:44:33.467Z,4.00
2019-02-14T05:47:02.495Z,4.40
2019-02-14T05:49:31.422Z,3.35
2019-02-14T05:52:00.381Z,3.30
2019-02-14T05:54:32.037Z,3.05
2019-02-14T05:57:01.821Z,3.50
2019-02-14T05:59:30.863Z,3.17
2019-02-14T06:01:59.856Z,6.12
2019-02-14T06:04:29.981Z,6.15
2019-02-14T06:07:01.137Z,5.40
2019-02-14T06:09:31.202Z,4.60
2019-02-14T06:12:00.143Z,7.75
2019-02-14T06:14:29.096Z,5.50
2019-02-14T06:16:58.048Z,3.65
2019-02-14T06:19:27.005Z,2.85
2019-02-14T06:21:55.956Z,3.05
2019-02-14T06:24:24.906Z,4.40
2019-02-14T06:26:53.878Z,3.98
2019-02-14T06:29:22.840Z,4.35
2019-02-14T06:31:51.865Z,9.50
2019-02-14T06:34:20.821Z,4.10
2019-02-14T06:36:49.768Z,4.45
2019-02-14T06:39:18.693Z,9.25
2019-02-14T06:41:47.655Z,8.15
2019-02-14T06:44:16.629Z,5.55
2019-02-14T06:46:45.576Z,9.08
2019-02-14T06:49:14.550Z,6.62
2019-02-14T06:51:43.507Z,7.03
2019-02-14T06:54:12.479Z,11.05
2019-02-14T06:56:41.516Z,6.78
2019-02-14T06:59:10.521Z,3.90
2019-02-14T07:01:39.463Z,6.75
2019-02-14T07:04:08.396Z,7.03
2019-02-14T07:06:37.372Z,11.08
2019-02-14T07:09:06.785Z,7.75
2019-02-14T07:11:35.762Z,9.05
2019-02-14T07:14:04.726Z,11.25
2019-02-14T07:16:33.694Z,12.30
2019-02-14T07:19:02.660Z,10.25
2019-02-14T07:21:31.612Z,11.22
2019-02-14T07:24:00.578Z,12.10
2019-02-14T07:26:29.542Z,17.50
2019-02-14T07:28:58.498Z,12.98
2019-02-14T07:31:27.465Z,9.30
2019-02-14T07:33:56.449Z,8.65
2019-02-14T07:36:25.423Z,11.43
2019-02-14T07:38:54.381Z,14.05
2019-02-14T07:41:23.317Z,10.03
2019-02-14T07:43:52.254Z,9.83
2019-02-14T07:46:22.928Z,25.57
2019-02-14T07:48:52.083Z,18.48
2019-02-14T07:51:21.069Z,22.70
2019-02-14T08:04:32.301Z,23.02
2019-02-14T08:07:01.261Z,18.32
2019-02-14T08:09:33.231Z,13.90
2019-02-14T08:12:02.171Z,14.30
2019-02-14T08:14:31.130Z,15.23
2019-02-14T08:17:00.072Z,13.15
2019-02-14T08:19:29.023Z,14.30
2019-02-14T08:21:57.978Z,16.97
2019-02-14T08:24:26.920Z,18.85
2019-02-14T08:26:55.881Z,16.57
2019-02-14T08:29:24.850Z,23.95
2019-02-14T08:31:53.789Z,20.20
2019-02-14T08:34:22.774Z,26.65
2019-02-14T08:36:51.758Z,47.58
2019-02-14T08:39:20.755Z,82.55
2019-02-14T08:41:49.682Z,41.75
2019-02-14T08:44:18.682Z,36.65
2019-02-14T08:46:47.696Z,30.75
2019-02-14T08:49:16.642Z,82.27
2019-02-14T08:51:45.626Z,33.28
2019-02-14T08:54:14.593Z,29.55
2019-02-14T08:56:43.577Z,26.85
2019-02-14T08:59:12.483Z,22.13
2019-02-14T09:01:41.431Z,24.00
2019-02-14T09:04:10.468Z,26.55
2019-02-14T09:06:39.404Z,23.75
2019-02-14T09:09:08.387Z,25.05
2019-02-14T09:11:37.395Z,47.40
2019-02-14T09:14:06.421Z,46.35
2019-02-14T09:16:35.313Z,41.70
2019-02-14T09:19:04.301Z,39.13
2019-02-14T09:21:33.277Z,45.75
2019-02-14T09:24:02.232Z,32.03
2019-02-14T09:26:31.266Z,34.25
2019-02-14T09:29:00.207Z,31.77
2019-02-14T09:31:29.226Z,34.13
2019-02-14T09:33:58.168Z,26.97
2019-02-14T09:36:27.193Z,26.20
2019-02-14T09:38:56.144Z,28.12
2019-02-14T09:41:25.128Z,29.35
2019-02-14T09:43:54.121Z,25.50
2019-02-14T09:46:23.129Z,23.60
2019-02-14T09:48:52.166Z,21.30
2019-02-14T09:51:21.181Z,17.42
2019-02-14T09:53:50.130Z,19.42
2019-02-14T09:56:19.097Z,24.70
2019-02-14T09:58:48.087Z,21.65
2019-02-14T10:01:17.061Z,27.50
2019-02-14T10:03:47.035Z,25.37
2019-02-14T10:06:16.149Z,26.70
2019-02-14T10:08:45.104Z,20.85
2019-02-14T10:11:14.161Z,21.52
2019-02-14T10:13:43.288Z,24.92
2019-02-14T10:16:12.243Z,21.97
2019-02-14T10:18:41.190Z,17.12
2019-02-14T10:21:10.148Z,22.35
2019-02-14T10:23:39.132Z,21.57
2019-02-14T10:26:08.106Z,16.55
2019-02-14T10:28:37.043Z,20.55
2019-02-14T10:31:06.020Z,19.77
2019-02-14T10:33:35.004Z,24.27
2019-02-14T10:36:04.595Z,22.52
2019-02-14T10:38:33.679Z,22.02
2019-02-14T10:41:02.725Z,22.07
2019-02-14T10:43:31.664Z,21.42
2019-02-14T10:46:00.640Z,18.52
2019-02-14T10:48:29.584Z,17.48
2019-02-14T10:50:58.573Z,22.30
2019-02-14T10:53:27.514Z,15.88
2019-02-14T10:55:56.497Z,20.65
2019-02-14T10:58:25.465Z,15.63
2019-02-14T11:00:54.469Z,30.08
2019-02-14T11:03:23.419Z,21.85
2019-02-14T11:05:52.341Z,24.35
2019-02-14T11:08:21.307Z,16.10
2019-02-14T11:10:50.254Z,17.92
2019-02-14T11:13:19.231Z,19.98
2019-02-14T11:15:48.190Z,20.70
2019-02-14T11:18:17.152Z,17.90
2019-02-14T11:20:46.115Z,15.05
2019-02-14T11:23:15.092Z,17.85
2019-02-14T11:25:44.030Z,15.68
2019-02-14T11:28:14.811Z,14.98
2019-02-14T11:30:43.779Z,13.72
2019-02-14T11:33:12.628Z,16.02
2019-02-14T11:35:41.555Z,17.40
2019-02-14T11:38:10.519Z,10.15
2019-02-14T11:40:39.498Z,12.88
2019-02-14T11:43:08.486Z,12.50
2019-02-14T11:45:37.452Z,19.30
2019-02-14T11:48:06.433Z,14.10
2019-02-14T11:50:35.382Z,12.82
2019-02-14T11:53:13.670Z,14.00
2019-02-14T11:55:35.028Z,13.22
2019-02-14T11:58:04.000Z,15.35
2019-02-14T12:00:32.939Z,11.75
2019-02-14T12:03:02.054Z,15.32
2019-02-14T12:05:31.028Z,17.02
2019-02-14T12:07:59.987Z,13.65
2019-02-14T12:10:28.937Z,11.00
2019-02-14T12:12:57.983Z,13.60
2019-02-14T12:15:26.865Z,9.98
2019-02-14T12:17:56.343Z,12.03
2019-02-14T12:20:25.215Z,14.05
2019-02-14T12:22:54.169Z,13.58
2019-02-14T12:25:23.372Z,12.90
2019-02-14T12:27:52.343Z,12.75
2019-02-14T12:30:21.911Z,12.95
2019-02-14T12:32:50.865Z,17.62
2019-02-14T12:35:19.837Z,16.90
2019-02-14T12:37:48.865Z,11.57
2019-02-14T12:40:17.851Z,16.50
2019-02-14T12:42:46.870Z,13.45
2019-02-14T12:45:21.712Z,17.77
2019-02-14T12:47:47.943Z,20.77
2019-02-14T12:50:16.916Z,18.05
2019-02-14T12:52:45.889Z,20.55
2019-02-14T12:55:14.844Z,15.10
2019-02-14T12:57:43.820Z,16.55
2019-02-14T13:00:15.902Z,12.53
2019-02-14T13:02:44.839Z,8.73
2019-02-14T13:05:13.826Z,16.25
2019-02-14T13:07:42.771Z,14.28
2019-02-14T13:10:12.190Z,17.25
2019-02-14T13:12:41.153Z,10.88
2019-02-14T13:15:12.693Z,15.40
2019-02-14T13:17:41.684Z,11.68
2019-02-14T13:20:10.768Z,11.35
2019-02-14T13:22:39.767Z,16.12
2019-02-14T13:25:09.681Z,14.63
2019-02-14T13:27:38.676Z,14.53
2019-02-14T13:30:10.071Z,20.72
2019-02-14T13:32:39.091Z,14.55
2019-02-14T13:35:08.064Z,11.80
2019-02-14T13:37:37.079Z,8.63
2019-02-14T13:40:06.141Z,11.45
2019-02-14T13:42:35.200Z,13.90
2019-02-14T13:45:04.222Z,10.32
2019-02-14T13:47:33.347Z,12.98
2019-02-14T13:50:02.506Z,12.93
2019-02-14T13:52:31.489Z,8.63
2019-02-14T13:55:00.481Z,12.78
2019-02-14T13:57:29.493Z,8.75
2019-02-14T13:59:58.513Z,13.68
2019-02-14T14:02:27.522Z,12.40
2019-02-14T14:04:56.543Z,12.30
2019-02-14T14:07:25.515Z,11.03
2019-02-14T14:09:54.483Z,10.90
2019-02-14T14:12:23.470Z,13.28
2019-02-14T14:14:52.448Z,12.68
2019-02-14T14:17:21.438Z,7.28
2019-02-14T14:19:50.398Z,6.42
2019-02-14T14:22:19.371Z,7.22
2019-02-14T14:24:48.388Z,7.17
2019-02-14T14:27:17.364Z,7.92
2019-02-14T14:29:46.315Z,4.65
2019-02-14T14:32:15.289Z,6.33
2019-02-14T14:34:44.259Z,6.40
2019-02-14T14:37:13.340Z,8.65
2019-02-14T14:39:47.808Z,10.40
2019-02-14T14:42:31.965Z,13.62
2019-02-14T14:45:00.938Z,6.90
2019-02-14T14:47:29.897Z,10.63
2019-02-14T14:49:58.876Z,8.33
2019-02-14T14:52:27.926Z,18.15
2019-02-14T14:54:56.919Z,10.72
2019-02-14T14:57:25.893Z,9.38
2019-02-14T14:59:54.915Z,11.60
2019-02-14T15:02:23.861Z,9.00
2019-02-14T15:04:52.845Z,8.68
2019-02-14T15:07:21.802Z,10.82
2019-02-14T15:09:57.209Z,11.90
2019-02-14T15:12:21.491Z,8.00
2019-02-14T15:14:50.499Z,12.45
2019-02-14T15:17:19.454Z,8.48
2019-02-14T15:19:48.784Z,13.03
2019-02-14T15:22:17.791Z,9.20
2019-02-14T15:24:46.764Z,9.83
2019-02-14T15:27:15.736Z,13.88
2019-02-14T15:29:44.776Z,12.53
2019-02-14T15:32:13.827Z,17.02
2019-02-14T15:34:44.772Z,15.38
2019-02-14T15:37:15.461Z,11.85
2019-02-14T15:39:44.440Z,17.70
2019-02-14T15:42:13.590Z,15.50
2019-02-14T15:44:42.583Z,11.57
2019-02-14T15:47:11.748Z,14.15
2019-02-14T15:49:40.806Z,12.00
2019-02-14T15:52:09.816Z,11.95
2019-02-14T15:54:38.830Z,8.95
2019-02-14T15:57:07.898Z,12.85
2019-02-14T15:59:36.947Z,6.55
2019-02-14T16:02:08.307Z,11.90
2019-02-14T16:04:36.881Z,6.72
2019-02-14T16:07:05.883Z,8.00
2019-02-14T16:09:36.545Z,11.35
2019-02-14T16:12:06.057Z,7.42
2019-02-14T16:14:35.031Z,8.33
2019-02-14T16:17:04.536Z,9.35
2019-02-14T16:19:34.562Z,10.23
2019-02-14T16:22:04.209Z,9.50
2019-02-14T16:24:33.158Z,10.85
2019-02-14T16:27:03.348Z,8.53
2019-02-14T16:29:32.779Z,6.80
2019-02-14T16:32:01.766Z,11.55
2019-02-14T16:34:30.764Z,7.33
2019-02-14T16:37:00.609Z,10.08
2019-02-14T16:39:29.683Z,8.05
2019-02-14T16:41:58.650Z,6.20
2019-02-14T16:44:27.623Z,12.40
2019-02-14T16:46:56.644Z,12.23
2019-02-14T16:49:25.629Z,14.03
2019-02-14T16:51:54.707Z,10.63
2019-02-14T16:54:23.659Z,11.15
2019-02-14T16:56:52.886Z,12.75
2019-02-14T16:59:21.835Z,10.68
2019-02-14T17:01:50.975Z,10.53
2019-02-14T17:04:19.994Z,8.10
2019-02-14T17:06:49.058Z,11.40
2019-02-14T17:09:18.405Z,12.25
2019-02-14T17:11:47.400Z,8.65
2019-02-14T17:14:16.840Z,9.33
2019-02-14T17:16:45.871Z,8.10
2019-02-14T17:19:14.985Z,11.45
2019-02-14T17:21:44.069Z,9.70
2019-02-14T17:24:13.116Z,10.85
2019-02-14T17:26:42.072Z,11.03
2019-02-14T17:29:11.221Z,5.47
2019-02-14T17:31:40.365Z,7.47
2019-02-14T17:34:09.613Z,10.82
2019-02-14T17:36:38.738Z,7.08
2019-02-14T17:39:07.775Z,7.97
2019-02-14T17:41:37.082Z,12.40
2019-02-14T17:44:06.284Z,7.62
2019-02-14T17:46:35.480Z,9.48
2019-02-14T17:49:04.729Z,7.53
2019-02-14T17:51:33.910Z,7.30
2019-02-14T17:54:03.408Z,9.38
2019-02-14T17:56:32.843Z,5.08
2019-02-14T17:59:02.786Z,8.35
2019-02-14T18:01:31.770Z,7.67
2019-02-14T18:04:01.178Z,7.40
2019-02-14T18:06:30.254Z,8.15
2019-02-14T18:08:59.555Z,5.45
2019-02-14T18:11:28.975Z,9.73
2019-02-14T18:13:58.342Z,15.72
2019-02-14T18:16:27.533Z,9.55
2019-02-14T18:18:56.605Z,9.10
2019-02-14T18:21:25.885Z,6.33
2019-02-14T18:23:55.347Z,5.80
2019-02-14T18:26:24.681Z,7.30
2019-02-14T18:28:53.907Z,4.20
2019-02-14T18:31:23.086Z,6.92
2019-02-14T18:33:52.421Z,8.53
2019-02-14T18:36:21.773Z,7.83
2019-02-14T18:38:51.239Z,7.12
2019-02-14T18:41:20.717Z,6.90
2019-02-14T18:43:50.062Z,6.20
2019-02-14T18:46:20.151Z,4.03
2019-02-14T18:48:50.002Z,6.45
2019-02-14T18:51:19.517Z,7.22
2019-02-14T18:53:48.902Z,9.30
2019-02-14T18:56:18.082Z,4.97
2019-02-14T18:58:47.538Z,4.37
2019-02-14T19:01:17.030Z,8.15
2019-02-14T19:03:46.310Z,6.17
2019-02-14T19:06:15.563Z,6.60
2019-02-14T19:08:48.657Z,5.72
2019-02-14T19:13:46.775Z,5.45
2019-02-14T19:16:16.555Z,5.85
2019-02-14T19:18:46.290Z,5.25
2019-02-14T19:21:16.422Z,7.55
2019-02-14T19:23:45.952Z,5.22
2019-02-14T19:26:15.384Z,4.05
2019-02-14T19:28:44.731Z,4.37
2019-02-14T19:31:14.304Z,8.33
2019-02-14T19:33:43.509Z,6.65
2019-02-14T19:36:15.177Z,5.90
2019-02-14T19:38:44.371Z,4.60
2019-02-14T19:41:14.209Z,7.15
2019-02-14T19:43:44.393Z,5.37
2019-02-14T19:46:14.094Z,8.70
2019-02-14T19:48:44.286Z,5.95
2019-02-14T19:51:16.331Z,3.98
2019-02-14T19:53:46.556Z,4.65
2019-02-14T19:56:16.292Z,3.87
2019-02-14T19:58:45.646Z,6.37
2019-02-14T20:01:14.959Z,5.33
2019-02-14T20:03:44.165Z,5.25
2019-02-14T20:06:13.469Z,3.37
2019-02-14T20:08:42.497Z,9.55
2019-02-14T20:11:12.146Z,5.60
2019-02-14T20:13:49.323Z,4.28
2019-02-14T20:16:12.731Z,4.05
2019-02-14T20:18:42.856Z,3.60
2019-02-14T20:21:12.960Z,4.33
2019-02-14T20:23:43.519Z,4.17
2019-02-14T20:26:13.293Z,6.37
2019-02-14T20:28:42.776Z,5.20
2019-02-14T20:31:12.326Z,4.95
2019-02-14T20:33:42.431Z,6.95
2019-02-14T20:36:11.775Z,5.65
2019-02-14T20:38:40.893Z,5.20
2019-02-14T20:41:10.629Z,6.00
2019-02-14T20:43:39.917Z,6.78
2019-02-14T20:46:09.544Z,8.05
2019-02-14T20:48:39.303Z,5.17
2019-02-14T20:51:09.645Z,4.25
2019-02-14T20:53:38.803Z,3.35
2019-02-14T20:56:08.471Z,4.78
2019-02-14T20:58:37.653Z,3.35
2019-02-14T21:01:10.267Z,4.75
2019-02-14T21:03:39.858Z,6.00
2019-02-14T21:06:09.214Z,6.95
2019-02-14T21:08:38.519Z,4.65
2019-02-14T21:11:08.048Z,4.75
2019-02-14T21:13:37.168Z,3.58
2019-02-14T21:16:06.692Z,4.15
2019-02-14T21:18:36.875Z,4.22
2019-02-14T21:21:06.701Z,6.90
2019-02-14T21:23:36.314Z,7.20
2019-02-14T21:26:05.725Z,6.50
2019-02-14T21:28:35.097Z,10.48
2019-02-14T21:31:04.659Z,9.20
2019-02-14T21:33:34.222Z,11.33
2019-02-14T21:36:03.361Z,11.28
2019-02-14T21:38:32.569Z,5.42
2019-02-14T21:41:01.644Z,6.15
2019-02-14T21:43:31.045Z,5.75
2019-02-14T21:46:00.171Z,3.90
2019-02-14T21:48:29.315Z,6.30
2019-02-14T21:50:58.386Z,8.65
2019-02-14T21:53:27.506Z,10.03
2019-02-14T21:55:56.835Z,5.83
2019-02-14T21:58:25.851Z,4.87
2019-02-14T22:00:54.922Z,6.05
2019-02-14T22:03:23.895Z,5.37
2019-02-14T22:05:52.910Z,10.15
2019-02-14T22:08:21.907Z,5.85
2019-02-14T22:10:50.880Z,7.50
2019-02-14T22:13:19.994Z,8.10
2019-02-14T22:15:49.003Z,5.45
2019-02-14T22:18:17.975Z,7.08
2019-02-14T22:20:46.904Z,5.85
2019-02-14T22:23:15.863Z,4.08
2019-02-14T22:25:44.854Z,5.67
2019-02-14T22:28:13.816Z,5.03
2019-02-14T22:30:42.783Z,6.22
2019-02-14T22:33:11.751Z,5.20
2019-02-14T22:35:40.742Z,3.72
2019-02-14T22:38:09.693Z,4.10
2019-02-14T22:40:38.642Z,6.10
2019-02-14T22:43:07.617Z,4.28
2019-02-14T22:45:36.565Z,3.95
2019-02-14T22:48:05.559Z,4.78
2019-02-14T22:50:34.499Z,5.95
2019-02-14T22:53:03.545Z,6.12
2019-02-14T22:55:32.513Z,4.85
2019-02-14T22:58:01.905Z,4.25
2019-02-14T23:00:39.402Z,4.08
2019-02-14T23:03:08.415Z,6.75
2019-02-14T23:05:37.562Z,5.15
2019-02-14T23:08:06.532Z,5.28
2019-02-14T23:10:35.498Z,4.25
2019-02-14T23:13:04.552Z,5.25
2019-02-14T23:15:33.418Z,5.17
2019-02-14T23:18:02.348Z,4.20
2019-02-14T23:20:31.081Z,6.45
2019-02-14T23:22:59.911Z,4.50
2019-02-14T23:25:28.726Z,5.53
2019-02-14T23:27:57.721Z,4.95
2019-02-14T23:30:26.549Z,4.87
2019-02-14T23:32:55.429Z,6.00
2019-02-14T23:35:24.396Z,6.45
2019-02-14T23:37:53.384Z,5.15
2019-02-14T23:40:22.348Z,7.00
2019-02-14T23:42:51.251Z,5.55
2019-02-14T23:45:20.196Z,4.30
2019-02-14T23:47:49.075Z,4.17
2019-02-14T23:50:18.068Z,3.92
2019-02-14T23:52:46.972Z,4.62
2019-02-14T23:55:15.838Z,5.37
2019-02-14T23:57:44.766Z,4.03
